Time;durP1;ratioP1;P1;durP2;ratioP2;P2;SDS_P1;SDS_P2;PMS_P1;PMS_P2;Temp;Humidity;BMP_temperature;BMP_pressure;BME280_temperature;BME280_humidity;BME280_pressure;Samples;Min_cycle;Max_cycle;Signal;HPM_P1;HPM_P2
2021/11/02 00:00:35;;;;;;;7.28;3.20;;;5.80;95.70;;;;;;4968307;28;20118;-69
2021/11/02 00:03:01;;;;;;;13.10;3.90;;;5.80;95.80;;;;;;4969352;28;20073;-69
2021/11/02 00:05:28;;;;;;;14.38;3.83;;;5.70;95.90;;;;;;4970230;28;20482;-69
2021/11/02 00:07:54;;;;;;;14.63;3.53;;;5.70;96.00;;;;;;4973598;28;20041;-68
2021/11/02 00:10:19;;;;;;;11.85;3.63;;;5.80;96.40;;;;;;4971153;28;20027;-69
2021/11/02 00:12:45;;;;;;;11.00;3.92;;;5.70;96.10;;;;;;4975966;28;20099;-68
2021/11/02 00:15:12;;;;;;;9.45;3.83;;;5.70;96.30;;;;;;4946571;28;20309;-69
2021/11/02 00:17:39;;;;;;;10.75;4.22;;;5.70;96.40;;;;;;4967201;28;20054;-69
2021/11/02 00:20:08;;;;;;;9.45;4.70;;;5.70;96.50;;;;;;4975028;28;20112;-69
2021/11/02 00:22:36;;;;;;;12.68;4.60;;;5.70;96.50;;;;;;4972253;28;20034;-69
2021/11/02 00:25:05;;;;;;;16.23;4.15;;;5.70;96.60;;;;;;4972761;28;20046;-69
2021/11/02 00:27:37;;;;;;;12.63;4.43;;;5.70;96.60;;;;;;4978373;28;21989;-68
2021/11/02 00:30:06;;;;;;;8.27;4.30;;;5.60;96.60;;;;;;4973864;28;20030;-69
2021/11/02 00:32:32;;;;;;;12.93;4.53;;;5.60;96.60;;;;;;4970479;28;20046;-69
2021/11/02 00:34:57;;;;;;;11.55;4.55;;;5.60;96.80;;;;;;4964430;28;20035;-68
2021/11/02 00:37:23;;;;;;;13.55;4.72;;;5.60;96.90;;;;;;4971938;28;20026;-69
2021/11/02 00:39:49;;;;;;;17.20;4.82;;;5.70;97.00;;;;;;4964167;28;20373;-68
2021/11/02 00:42:14;;;;;;;15.52;4.85;;;5.60;96.90;;;;;;4976323;28;20030;-69
2021/11/02 00:44:44;;;;;;;7.32;4.25;;;5.60;97.00;;;;;;4971392;28;20023;-68
2021/11/02 00:47:12;;;;;;;10.05;4.63;;;5.60;97.00;;;;;;4954001;28;20088;-69
2021/11/02 00:49:38;;;;;;;15.50;5.38;;;5.60;97.00;;;;;;4972810;28;20469;-69
2021/11/02 00:52:04;;;;;;;18.65;5.60;;;5.60;97.10;;;;;;4972323;28;20422;-68
2021/11/02 00:54:30;;;;;;;19.13;4.80;;;5.60;97.00;;;;;;4967710;28;20027;-69
2021/11/02 00:56:55;;;;;;;9.57;5.03;;;5.60;97.20;;;;;;4963483;28;20290;-69
2021/11/02 00:59:21;;;;;;;23.02;5.50;;;5.70;97.30;;;;;;4970798;28;20362;-69
2021/11/02 01:01:46;;;;;;;17.20;5.18;;;5.70;97.40;;;;;;4974883;28;20380;-68
2021/11/02 01:04:12;;;;;;;16.08;5.28;;;5.70;97.50;;;;;;4966893;28;20041;-69
2021/11/02 01:06:38;;;;;;;15.18;5.40;;;5.80;97.40;;;;;;4965843;28;20226;-69
2021/11/02 01:09:06;;;;;;;15.00;6.28;;;5.70;97.20;;;;;;4966709;28;20033;-70
2021/11/02 01:11:32;;;;;;;15.95;5.50;;;5.80;97.40;;;;;;4971307;28;20462;-70
2021/11/02 01:13:57;;;;;;;17.83;5.65;;;5.90;97.40;;;;;;4969584;28;20042;-70
2021/11/02 01:16:25;;;;;;;13.85;5.50;;;5.80;97.40;;;;;;4965252;28;20038;-69
2021/11/02 01:18:52;;;;;;;11.95;5.45;;;5.80;97.20;;;;;;4977025;28;20034;-70
2021/11/02 01:21:18;;;;;;;14.43;5.20;;;5.80;97.30;;;;;;4971181;28;20034;-69
2021/11/02 01:23:44;;;;;;;14.00;5.38;;;5.80;97.30;;;;;;4969467;28;20073;-69
2021/11/02 01:26:10;;;;;;;18.08;5.57;;;5.80;97.40;;;;;;4971380;28;20581;-70
2021/11/02 01:28:35;;;;;;;11.45;4.97;;;5.80;97.40;;;;;;4966834;28;20085;-70
2021/11/02 01:31:01;;;;;;;10.60;5.18;;;5.90;97.50;;;;;;4979022;28;20034;-70
2021/11/02 01:33:26;;;;;;;14.25;5.05;;;5.90;97.40;;;;;;4958586;28;20033;-70
2021/11/02 01:35:52;;;;;;;16.40;5.03;;;5.80;97.30;;;;;;4959476;28;20328;-70
2021/11/02 01:38:20;;;;;;;10.88;5.18;;;5.80;97.30;;;;;;4967925;28;20109;-69
2021/11/02 01:40:46;;;;;;;15.70;5.18;;;6.00;97.40;;;;;;4968241;28;20117;-70
2021/11/02 01:43:14;;;;;;;13.65;5.53;;;5.80;97.20;;;;;;4957960;28;20109;-69
2021/11/02 01:45:39;;;;;;;16.67;5.78;;;5.80;97.20;;;;;;4969756;28;20027;-70
2021/11/02 01:48:06;;;;;;;13.85;5.53;;;5.70;97.30;;;;;;4968627;28;20037;-69
2021/11/02 01:50:33;;;;;;;14.43;5.53;;;5.70;97.20;;;;;;4974189;28;20433;-69
2021/11/02 01:52:59;;;;;;;17.70;4.82;;;5.60;97.10;;;;;;4971926;28;20034;-69
2021/11/02 01:55:24;;;;;;;12.20;4.97;;;5.40;97.20;;;;;;4974720;28;20458;-70
2021/11/02 01:57:50;;;;;;;12.82;5.40;;;5.40;97.30;;;;;;4971504;28;20031;-69
2021/11/02 02:00:19;;;;;;;13.82;5.80;;;5.40;97.40;;;;;;4971390;28;20046;-69
2021/11/02 02:02:55;;;;;;;13.38;5.90;;;5.30;97.50;;;;;;4974088;28;20133;-69
2021/11/02 02:05:51;;;;;;;15.55;5.68;;;5.30;97.40;;;;;;4961856;28;20083;-68
2021/11/02 02:08:21;;;;;;;20.17;5.35;;;5.20;97.50;;;;;;4974032;28;20213;-68
2021/11/02 02:10:47;;;;;;;20.35;6.00;;;5.10;97.60;;;;;;4966763;28;20162;-69
2021/11/02 02:13:37;;;;;;;12.07;5.82;;;5.10;97.70;;;;;;4976770;28;20578;-69
2021/11/02 02:16:17;;;;;;;19.33;5.68;;;5.00;97.70;;;;;;4952446;28;20506;-69
2021/11/02 02:18:47;;;;;;;14.65;6.35;;;5.00;97.90;;;;;;4972220;28;20049;-69
2021/11/02 02:21:39;;;;;;;15.50;6.78;;;5.00;97.90;;;;;;4980217;28;20133;-69
2021/11/02 02:24:29;;;;;;;18.20;6.55;;;5.00;98.00;;;;;;4971827;28;20462;-70
2021/11/02 02:27:07;;;;;;;16.35;6.97;;;5.00;98.10;;;;;;4974483;28;20034;-68
2021/11/02 02:29:37;;;;;;;14.40;6.82;;;5.10;98.10;;;;;;4971665;28;20458;-69
2021/11/02 02:32:04;;;;;;;17.65;6.55;;;5.10;98.20;;;;;;4971266;28;20041;-68
2021/11/02 02:34:31;;;;;;;18.95;7.25;;;5.10;98.20;;;;;;4970472;28;20548;-69
2021/11/02 02:36:58;;;;;;;16.02;7.05;;;5.10;98.30;;;;;;4958406;28;20042;-69
2021/11/02 02:39:24;;;;;;;18.42;7.35;;;5.10;98.40;;;;;;4974422;28;20441;-69
2021/11/02 02:41:51;;;;;;;21.27;8.07;;;5.10;98.30;;;;;;4980116;28;20578;-69
2021/11/02 02:44:18;;;;;;;21.25;7.72;;;5.10;98.30;;;;;;4980901;28;20038;-69
2021/11/02 02:46:44;;;;;;;18.50;7.28;;;5.10;98.40;;;;;;4972230;28;20111;-69
2021/11/02 02:49:12;;;;;;;18.13;7.80;;;5.10;98.40;;;;;;4971325;28;20046;-69
2021/11/02 02:51:42;;;;;;;20.45;7.88;;;5.00;98.30;;;;;;4969570;28;20066;-69
2021/11/02 02:54:10;;;;;;;18.83;7.35;;;5.00;98.40;;;;;;4962420;28;20425;-68
2021/11/02 02:56:42;;;;;;;14.05;6.82;;;5.00;98.50;;;;;;4982981;28;20030;-68
2021/11/02 02:59:08;;;;;;;18.55;7.53;;;5.00;98.50;;;;;;4961986;28;20125;-68
2021/11/02 03:01:34;;;;;;;15.80;7.38;;;5.00;98.50;;;;;;4974236;28;20035;-68
2021/11/02 03:04:05;;;;;;;18.63;7.43;;;5.10;98.60;;;;;;4976242;28;20317;-68
2021/11/02 03:06:36;;;;;;;;;;;5.20;98.70;;;;;;4968168;28;20109;-68
2021/11/02 03:09:04;;;;;;;17.50;7.32;;;5.10;98.50;;;;;;4969066;28;19933;-68
2021/11/02 03:11:31;;;;;;;21.30;8.18;;;5.10;98.60;;;;;;4978657;28;20088;-68
2021/11/02 03:14:02;;;;;;;21.42;8.02;;;5.00;98.60;;;;;;4975961;28;20042;-68
2021/11/02 03:19:26;;;;;;;21.50;7.97;;;5.00;98.60;;;;;;4994206;22;20051;-79
2021/11/02 03:44:07;;;;;;;29.27;8.40;;;5.10;98.80;;;;;;4974855;28;20034;-79
2021/11/02 03:49:40;;;;;;;23.65;9.13;;;5.10;98.70;;;;;;4924264;28;20034;-78
2021/11/02 03:54:57;;;;;;;28.77;7.93;;;5.10;98.80;;;;;;4936841;28;20042;-79
2021/11/02 03:57:49;;;;;;;20.25;8.57;;;5.10;98.80;;;;;;4969964;28;20540;-79
2021/11/02 04:28:17;;;;;;;21.48;7.47;;;4.90;98.70;;;;;;4973926;28;20029;-79
2021/11/02 04:45:14;;;;;;;16.10;7.80;;;4.80;98.80;;;;;;4965330;28;20540;-79
2021/11/02 04:47:52;;;;;;;30.83;8.90;;;4.80;98.80;;;;;;4963863;28;20114;-79
2021/11/02 05:07:14;;;;;;;27.20;9.65;;;4.80;99.00;;;;;;4957359;28;20031;-78
2021/11/02 05:48:15;;;;;;;25.33;9.25;;;4.10;99.10;;;;;;4958141;28;20119;-80
2021/11/02 05:51:03;;;;;;;24.55;8.70;;;4.10;99.20;;;;;;4944742;28;20027;-80
2021/11/02 05:56:31;;;;;;;26.20;9.18;;;3.90;99.10;;;;;;4962829;28;20034;-79
2021/11/02 05:59:13;;;;;;;26.08;8.90;;;4.00;99.20;;;;;;4966799;28;20107;-80
2021/11/02 06:29:35;;;;;;;23.55;9.30;;;4.30;99.40;;;;;;4963293;28;20512;-80
2021/11/02 06:34:44;;;;;;;31.95;10.02;;;4.40;99.50;;;;;;4960827;28;20033;-79
2021/11/02 06:40:12;;;;;;;27.05;8.65;;;4.50;99.40;;;;;;4959284;28;20034;-80
2021/11/02 06:42:56;;;;;;;27.13;9.00;;;4.60;99.40;;;;;;4961946;28;20382;-79
2021/11/02 06:56:41;;;;;;;19.52;8.55;;;5.00;99.50;;;;;;4969666;28;20078;-79
2021/11/02 07:16:37;;;;;;;20.60;8.18;;;5.80;99.00;;;;;;4964437;28;20234;-78
2021/11/02 07:19:06;;;;;;;19.98;9.18;;;6.00;98.90;;;;;;4970634;28;20055;-79
2021/11/02 07:21:47;;;;;;;22.65;7.88;;;6.10;98.60;;;;;;4966714;28;20087;-79
2021/11/02 07:24:52;;;;;;;22.50;8.55;;;6.10;98.40;;;;;;4952652;28;20407;-78
2021/11/02 07:30:16;;;;;;;20.25;6.80;;;6.30;97.80;;;;;;4977201;28;20109;-77
2021/11/02 08:46:13;;;;;;;7.10;3.05;;;7.60;93.40;;;;;;4965110;28;20060;-79
2021/11/02 08:48:40;;;;;;;7.78;2.92;;;7.80;93.50;;;;;;4972325;28;20114;-79
2021/11/02 08:51:06;;;;;;;5.25;2.85;;;7.70;93.10;;;;;;4951377;28;20019;-79
2021/11/02 08:53:34;;;;;;;8.23;3.25;;;7.80;93.30;;;;;;4970897;28;20031;-79
2021/11/02 08:56:00;;;;;;;10.48;3.00;;;7.90;93.10;;;;;;4954764;28;20147;-80
2021/11/02 08:58:28;;;;;;;6.28;3.25;;;8.00;93.00;;;;;;4964343;28;20042;-80
2021/11/02 09:00:56;;;;;;;6.07;2.90;;;8.10;92.90;;;;;;4968846;28;20047;-80
2021/11/02 09:03:28;;;;;;;8.02;2.95;;;8.20;92.80;;;;;;4980246;28;20038;-79
2021/11/02 09:05:55;;;;;;;5.38;2.70;;;8.20;92.20;;;;;;4964250;28;20027;-79
2021/11/02 09:08:24;;;;;;;6.78;3.17;;;8.30;92.30;;;;;;4957422;28;20082;-79
2021/11/02 09:10:50;;;;;;;8.43;2.83;;;8.40;92.10;;;;;;4972850;28;20026;-79
2021/11/02 09:13:16;;;;;;;6.97;2.72;;;8.30;91.60;;;;;;4980012;28;20109;-80
2021/11/02 09:15:44;;;;;;;7.30;2.72;;;8.40;92.20;;;;;;4968182;28;20032;-80
2021/11/02 09:18:11;;;;;;;8.60;2.97;;;8.50;92.30;;;;;;4998090;23;20050;-78
2021/11/02 09:20:39;;;;;;;8.55;3.10;;;8.60;92.50;;;;;;4968629;28;20167;-78
2021/11/02 09:23:06;;;;;;;11.48;2.88;;;8.70;92.20;;;;;;4950093;28;20099;-78
2021/11/02 09:25:32;;;;;;;5.35;2.38;;;8.70;91.60;;;;;;4976115;28;20058;-78
2021/11/02 09:27:58;;;;;;;8.80;2.95;;;8.60;91.30;;;;;;4981622;28;20038;-78
2021/11/02 09:30:25;;;;;;;7.68;3.03;;;8.70;91.80;;;;;;4974922;28;20019;-78
2021/11/02 09:32:53;;;;;;;6.55;2.63;;;8.80;91.60;;;;;;4975719;28;20575;-78
2021/11/02 09:35:22;;;;;;;9.20;2.90;;;8.80;91.40;;;;;;4957559;28;20035;-78
2021/11/02 09:38:06;;;;;;;9.65;3.05;;;9.00;91.20;;;;;;4953923;28;20126;-78
2021/11/02 09:40:45;;;;;;;8.15;2.90;;;9.10;91.00;;;;;;4953851;28;20019;-78
2021/11/02 09:43:25;;;;;;;7.50;2.60;;;9.10;90.40;;;;;;4953638;28;20031;-78
2021/11/02 09:46:06;;;;;;;6.05;2.78;;;9.20;90.00;;;;;;4962257;28;20082;-78
2021/11/02 09:48:56;;;;;;;6.97;2.72;;;9.50;90.30;;;;;;4962388;28;20444;-78
2021/11/02 09:51:48;;;;;;;9.48;2.58;;;10.00;89.90;;;;;;4978561;28;20023;-79
2021/11/02 09:54:23;;;;;;;10.13;2.65;;;10.30;88.50;;;;;;4965428;28;20031;-78
2021/11/02 09:57:05;;;;;;;7.32;2.45;;;10.40;87.00;;;;;;4947155;28;20031;-79
2021/11/02 10:00:07;;;;;;;8.80;3.17;;;10.60;87.10;;;;;;4969492;28;20038;-78
2021/11/02 10:02:45;;;;;;;5.95;2.67;;;10.70;86.40;;;;;;4976867;28;20256;-79
2021/11/02 10:05:37;;;;;;;7.43;3.35;;;10.70;85.60;;;;;;4954035;28;20058;-78
2021/11/02 10:08:25;;;;;;;7.30;3.58;;;10.80;85.90;;;;;;4961559;28;20035;-78
2021/11/02 10:11:02;;;;;;;9.43;3.92;;;10.60;85.30;;;;;;4938712;28;20055;-79
2021/11/02 10:13:47;;;;;;;10.02;3.50;;;10.80;85.80;;;;;;4964923;28;20022;-78
2021/11/02 10:23:35;;;;;;;8.27;3.70;;;10.70;84.40;;;;;;4942818;28;20046;-75
2021/11/02 10:26:23;;;;;;;10.57;4.43;;;10.90;84.60;;;;;;4930107;28;20055;-76
2021/11/02 10:29:02;;;;;;;11.05;3.40;;;11.00;83.90;;;;;;4939537;29;20040;-76
2021/11/02 10:31:39;;;;;;;9.57;4.00;;;11.20;84.10;;;;;;4941365;28;20112;-78
2021/11/02 10:34:35;;;;;;;10.20;3.92;;;10.80;82.70;;;;;;4959442;28;20027;-78
2021/11/02 10:37:12;;;;;;;7.10;4.00;;;10.90;83.40;;;;;;4973707;28;20073;-78
2021/11/02 10:39:57;;;;;;;10.80;4.72;;;11.00;83.20;;;;;;4972089;28;20493;-77
2021/11/02 10:43:05;;;;;;;11.23;4.88;;;11.10;83.20;;;;;;4978299;28;20082;-78
2021/11/02 10:45:34;;;;;;;11.68;4.97;;;11.20;82.10;;;;;;4970965;28;20039;-78
2021/11/02 10:48:06;;;;;;;8.60;4.22;;;11.20;82.10;;;;;;4951179;28;20027;-78
2021/11/02 10:50:37;;;;;;;12.80;4.25;;;11.40;82.90;;;;;;4964574;28;20105;-78
2021/11/02 10:53:06;;;;;;;11.20;4.60;;;11.50;81.80;;;;;;4952044;28;20051;-78
2021/11/02 10:55:48;;;;;;;8.95;4.30;;;11.50;82.00;;;;;;4970273;28;20042;-79
2021/11/02 10:58:40;;;;;;;8.30;3.97;;;11.70;81.30;;;;;;4969619;28;20194;-80
2021/11/02 11:01:08;;;;;;;7.70;3.65;;;12.00;80.50;;;;;;4977477;28;20038;-77
2021/11/02 11:03:37;;;;;;;11.25;3.88;;;12.00;80.80;;;;;;4967466;28;20656;-80
2021/11/02 11:06:15;;;;;;;8.32;3.63;;;11.60;80.10;;;;;;4971751;28;20040;-78
2021/11/02 11:08:47;;;;;;;10.77;4.28;;;11.50;80.90;;;;;;4967445;28;20114;-79
2021/11/02 11:11:15;;;;;;;8.85;3.13;;;11.20;81.00;;;;;;4964363;28;20031;-79
2021/11/02 11:13:45;;;;;;;8.50;3.10;;;11.00;81.20;;;;;;4969427;28;20046;-79
2021/11/02 11:16:13;;;;;;;8.60;3.45;;;10.80;82.10;;;;;;4950264;28;20026;-79
2021/11/02 11:19:08;;;;;;;7.32;3.13;;;10.70;82.90;;;;;;4966805;28;20170;-78
2021/11/02 11:21:35;;;;;;;6.43;3.10;;;10.60;82.30;;;;;;4980072;28;20042;-76
2021/11/02 11:24:23;;;;;;;7.28;3.50;;;10.80;82.90;;;;;;4964383;28;20031;-77
2021/11/02 11:26:52;;;;;;;10.60;3.17;;;10.80;82.10;;;;;;4971318;28;20377;-77
2021/11/02 11:29:22;;;;;;;7.95;3.35;;;11.00;82.60;;;;;;4959904;28;20065;-76
2021/11/02 11:31:49;;;;;;;6.57;2.80;;;11.60;81.30;;;;;;4966092;28;20409;-77
2021/11/02 11:34:17;;;;;;;9.07;3.70;;;12.30;80.40;;;;;;4940538;28;20058;-78
2021/11/02 11:36:49;;;;;;;7.82;3.55;;;12.80;78.70;;;;;;4971673;28;20089;-77
2021/11/02 11:39:16;;;;;;;;;;;12.40;77.10;;;;;;4948626;28;20397;-77
2021/11/02 11:41:49;;;;;;;12.05;3.75;;;12.30;78.10;;;;;;4968970;28;19918;-77
2021/11/02 11:44:17;;;;;;;8.48;3.60;;;11.90;79.20;;;;;;4967997;28;20039;-77
2021/11/02 11:46:43;;;;;;;9.98;4.00;;;12.00;79.50;;;;;;4957147;28;20037;-77
2021/11/02 11:49:10;;;;;;;8.52;4.05;;;12.00;79.60;;;;;;4974709;28;20026;-79
2021/11/02 11:51:37;;;;;;;11.27;3.50;;;12.20;78.90;;;;;;4951482;28;20022;-77
2021/11/02 11:54:08;;;;;;;9.20;4.32;;;12.00;78.50;;;;;;4966979;28;20054;-78
2021/11/02 11:56:37;;;;;;;8.18;4.10;;;11.70;79.50;;;;;;4968188;28;20123;-78
2021/11/02 11:59:03;;;;;;;7.63;3.75;;;12.30;79.70;;;;;;4966039;28;20042;-78
2021/11/02 12:01:49;;;;;;;9.02;3.97;;;12.50;77.70;;;;;;4950111;28;20512;-78
2021/11/02 12:04:33;;;;;;;10.13;3.47;;;12.60;77.30;;;;;;4949877;28;20067;-79
2021/11/02 12:07:11;;;;;;;10.27;4.18;;;12.20;78.00;;;;;;4950465;28;20022;-78
2021/11/02 12:09:45;;;;;;;11.52;3.75;;;12.00;78.90;;;;;;4963932;28;20026;-77
2021/11/02 12:12:12;;;;;;;9.98;3.47;;;11.70;79.40;;;;;;4969323;28;20030;-78
2021/11/02 12:14:49;;;;;;;12.23;4.13;;;11.60;79.70;;;;;;4962400;28;20502;-79
2021/11/02 12:17:24;;;;;;;9.70;3.90;;;11.50;79.00;;;;;;4965107;28;20050;-78
2021/11/02 12:20:05;;;;;;;8.57;4.05;;;11.60;80.60;;;;;;4966951;28;20035;-78
2021/11/02 12:22:41;;;;;;;9.45;4.30;;;11.60;79.90;;;;;;4959709;28;20019;-78
2021/11/02 12:25:09;;;;;;;9.02;4.10;;;11.50;79.70;;;;;;4951353;28;20039;-78
2021/11/02 12:27:43;;;;;;;10.43;4.50;;;11.50;80.60;;;;;;4942710;28;20071;-78
2021/11/02 12:30:17;;;;;;;10.55;4.80;;;11.60;81.30;;;;;;4939297;28;20035;-78
2021/11/02 12:32:57;;;;;;;9.93;4.97;;;11.40;80.80;;;;;;4951248;28;20031;-78
2021/11/02 12:35:35;;;;;;;8.88;4.00;;;11.40;81.10;;;;;;4967087;28;20519;-78
2021/11/02 12:38:03;;;;;;;8.68;4.25;;;11.40;80.50;;;;;;4960747;28;20038;-78
2021/11/02 12:40:43;;;;;;;8.35;4.18;;;11.50;81.10;;;;;;4967553;28;20039;-78
2021/11/02 12:43:25;;;;;;;8.70;4.28;;;11.50;81.30;;;;;;4945684;28;20247;-78
2021/11/02 12:45:53;;;;;;;10.32;4.10;;;11.50;80.60;;;;;;4953895;28;20035;-78
2021/11/02 12:48:20;;;;;;;10.32;4.50;;;11.50;80.90;;;;;;4941451;28;20468;-78
2021/11/02 12:50:48;;;;;;;9.02;4.07;;;11.60;81.10;;;;;;4950242;28;20031;-79
2021/11/02 12:53:15;;;;;;;11.35;4.22;;;11.50;80.80;;;;;;4952121;28;20042;-78
2021/11/02 12:55:41;;;;;;;9.18;4.30;;;11.60;81.40;;;;;;4945961;28;20031;-78
2021/11/02 12:58:09;;;;;;;8.90;3.88;;;11.60;80.90;;;;;;4948490;28;20449;-78
2021/11/02 13:00:50;;;;;;;8.23;3.85;;;11.60;80.80;;;;;;4969846;28;20027;-79
2021/11/02 13:03:29;;;;;;;13.23;4.38;;;11.50;81.10;;;;;;4961482;28;20034;-79
2021/11/02 13:06:07;;;;;;;11.23;4.07;;;11.50;81.70;;;;;;4948520;28;20042;-78
2021/11/02 13:08:47;;;;;;;6.45;3.72;;;11.70;81.40;;;;;;4958964;28;20570;-78
2021/11/02 13:11:18;;;;;;;11.15;4.00;;;11.70;81.20;;;;;;4945310;28;20082;-78
2021/11/02 13:14:02;;;;;;;9.00;4.13;;;11.70;81.40;;;;;;4962538;28;20567;-79
2021/11/02 13:16:32;;;;;;;11.25;3.72;;;11.80;80.90;;;;;;4963821;28;20052;-78
2021/11/02 13:19:11;;;;;;;10.02;3.70;;;11.80;80.60;;;;;;4978518;28;20041;-78
2021/11/02 13:21:36;;;;;;;7.07;3.83;;;12.00;81.20;;;;;;4952545;28;20484;-78
2021/11/02 13:24:18;;;;;;;7.53;3.58;;;11.90;80.90;;;;;;4965087;28;20039;-79
2021/11/02 13:26:47;;;;;;;10.00;4.07;;;11.70;81.00;;;;;;4937862;28;20030;-78
2021/11/02 13:29:17;;;;;;;9.10;3.55;;;11.70;81.50;;;;;;4943771;28;20030;-78
2021/11/02 13:31:44;;;;;;;6.78;3.22;;;11.50;81.40;;;;;;4976095;28;20403;-78
2021/11/02 13:34:19;;;;;;;7.07;2.80;;;11.50;81.30;;;;;;4964230;28;20034;-77
2021/11/02 13:36:46;;;;;;;6.50;3.03;;;11.40;81.10;;;;;;4959569;28;20030;-79
2021/11/02 13:39:14;;;;;;;9.95;3.03;;;11.30;80.80;;;;;;4945425;28;20393;-77
2021/11/02 13:41:49;;;;;;;6.75;3.13;;;11.40;81.00;;;;;;4951977;28;20019;-78
2021/11/02 13:44:16;;;;;;;10.50;3.30;;;11.30;81.70;;;;;;4950183;28;20039;-77
2021/11/02 13:46:52;;;;;;;12.77;2.95;;;11.50;81.30;;;;;;4956376;28;20031;-78
2021/11/02 13:49:20;;;;;;;6.22;2.85;;;11.50;81.70;;;;;;4966774;28;20106;-78
2021/11/02 13:51:47;;;;;;;6.20;2.58;;;11.50;81.50;;;;;;4965302;28;20507;-79
2021/11/02 13:54:12;;;;;;;8.27;3.45;;;11.50;81.40;;;;;;4977063;28;20329;-79
2021/11/02 13:56:44;;;;;;;8.85;2.95;;;11.50;81.20;;;;;;4969492;28;20081;-78
2021/11/02 13:59:11;;;;;;;10.10;2.85;;;11.60;81.50;;;;;;4949639;28;20023;-78
2021/11/02 14:01:49;;;;;;;8.88;3.00;;;12.00;80.90;;;;;;4969052;28;20081;-78
2021/11/02 14:04:19;;;;;;;8.85;2.97;;;12.00;80.00;;;;;;4969181;28;20027;-78
2021/11/02 14:06:59;;;;;;;7.10;2.80;;;12.50;79.90;;;;;;4965545;28;20275;-78
2021/11/02 14:09:31;;;;;;;9.88;2.88;;;12.60;77.40;;;;;;4964537;28;20027;-77
2021/11/02 14:11:58;;;;;;;7.65;2.90;;;13.50;75.50;;;;;;4951376;28;20235;-79
2021/11/02 14:14:32;;;;;;;5.43;2.47;;;13.70;74.40;;;;;;4971345;28;20408;-77
2021/11/02 14:17:14;;;;;;;8.10;2.50;;;13.60;74.60;;;;;;4967064;28;20489;-78
2021/11/02 14:19:43;;;;;;;6.55;2.33;;;12.90;75.30;;;;;;4964980;28;20042;-77
2021/11/02 14:22:11;;;;;;;11.00;2.40;;;12.50;77.60;;;;;;4981330;28;20034;-77
2021/11/02 14:24:45;;;;;;;6.35;2.25;;;12.40;78.20;;;;;;4980839;28;20030;-78
2021/11/02 14:27:39;;;;;;;6.38;2.58;;;12.30;77.90;;;;;;4973548;28;20027;-78
2021/11/02 14:30:05;;;;;;;6.28;2.72;;;11.90;79.50;;;;;;4973520;28;20085;-77
2021/11/02 14:32:36;;;;;;;5.78;2.40;;;11.80;80.20;;;;;;4981101;28;20368;-78
2021/11/02 14:35:07;;;;;;;9.00;2.95;;;11.80;80.40;;;;;;4973818;28;20031;-78
2021/11/02 14:38:09;;;;;;;6.10;2.80;;;11.60;80.40;;;;;;4973776;28;20567;-77
2021/11/02 14:40:38;;;;;;;8.40;3.05;;;11.60;80.60;;;;;;4914371;28;20070;-78
2021/11/02 14:43:12;;;;;;;8.35;3.30;;;11.50;81.40;;;;;;4953156;28;20058;-78
2021/11/02 14:45:45;;;;;;;8.43;3.30;;;11.30;81.50;;;;;;4962422;28;20026;-78
2021/11/02 14:48:28;;;;;;;10.60;3.60;;;11.10;82.00;;;;;;4969588;28;20027;-78
2021/11/02 14:50:58;;;;;;;9.63;3.78;;;10.80;82.80;;;;;;4967713;28;20029;-78
2021/11/02 14:53:27;;;;;;;9.55;3.88;;;10.70;83.20;;;;;;4976930;28;20089;-78
2021/11/02 14:55:55;;;;;;;6.72;3.22;;;10.50;83.90;;;;;;4962595;28;20081;-78
2021/11/02 14:58:48;;;;;;;6.15;3.28;;;10.30;84.30;;;;;;4978933;28;20405;-78
2021/11/02 15:01:26;;;;;;;7.57;3.13;;;10.20;84.90;;;;;;4967525;28;20408;-77
2021/11/02 15:04:01;;;;;;;6.75;3.60;;;10.10;84.90;;;;;;4983279;28;20106;-78
2021/11/02 15:06:40;;;;;;;10.48;3.90;;;10.00;85.60;;;;;;4989510;28;20081;-78
2021/11/02 15:09:12;;;;;;;9.93;4.20;;;9.80;85.90;;;;;;4979770;28;20108;-77
2021/11/02 15:11:42;;;;;;;6.55;3.45;;;9.80;86.60;;;;;;4952490;28;20027;-78
2021/11/02 15:14:14;;;;;;;7.23;3.93;;;9.60;87.10;;;;;;4990155;28;20042;-78
2021/11/02 15:17:01;;;;;;;8.98;4.35;;;9.50;87.40;;;;;;4987560;28;20033;-78
2021/11/02 15:19:29;;;;;;;11.32;4.53;;;9.40;87.00;;;;;;4967032;23;20047;-62
2021/11/02 15:21:55;;;;;;;8.00;4.20;;;9.20;87.80;;;;;;4951565;28;20023;-62
2021/11/02 15:24:36;;;;;;;10.57;4.97;;;9.10;88.30;;;;;;4941864;28;20031;-62
2021/11/02 15:27:10;;;;;;;10.10;5.00;;;9.00;89.20;;;;;;4939117;28;20182;-64
2021/11/02 15:30:00;;;;;;;9.95;5.35;;;8.90;88.70;;;;;;4939232;28;20070;-63
2021/11/02 15:32:27;;;;;;;10.02;5.38;;;8.70;88.60;;;;;;4930532;28;20043;-65
2021/11/02 15:34:54;;;;;;;11.40;6.03;;;8.60;89.50;;;;;;4947056;28;20097;-64
2021/11/02 15:37:25;;;;;;;10.32;6.25;;;8.50;90.10;;;;;;4953658;28;20322;-64
2021/11/02 15:39:57;;;;;;;12.15;5.78;;;8.30;90.40;;;;;;4936116;28;20058;-64
2021/11/02 15:42:35;;;;;;;11.77;6.88;;;8.20;90.50;;;;;;4947183;28;20114;-64
2021/11/02 15:45:07;;;;;;;14.25;6.97;;;8.10;91.40;;;;;;4944270;28;20109;-64
2021/11/02 15:47:50;;;;;;;13.80;8.07;;;8.00;91.90;;;;;;4936736;28;20050;-63
2021/11/02 15:50:26;;;;;;;14.45;8.05;;;8.00;92.50;;;;;;4946662;28;20463;-63
2021/11/02 15:53:00;;;;;;;16.48;8.55;;;7.80;92.40;;;;;;4941283;28;20171;-63
2021/11/02 15:55:26;;;;;;;15.27;8.52;;;7.80;92.90;;;;;;4955475;28;20056;-64
2021/11/02 15:57:57;;;;;;;12.73;8.30;;;7.70;93.10;;;;;;4940076;28;20070;-64
2021/11/02 16:00:26;;;;;;;21.08;10.07;;;7.60;93.40;;;;;;4934418;28;20071;-63
2021/11/02 16:02:52;;;;;;;18.67;10.77;;;7.60;93.70;;;;;;4938873;28;20047;-64
2021/11/02 16:05:21;;;;;;;14.13;9.75;;;7.50;94.10;;;;;;4940985;28;20110;-63
2021/11/02 16:07:47;;;;;;;14.07;9.48;;;7.40;94.00;;;;;;4936614;28;20609;-64
2021/11/02 16:10:14;;;;;;;16.27;10.48;;;7.30;94.00;;;;;;4941290;28;20364;-63
2021/11/02 16:12:42;;;;;;;19.45;11.10;;;7.20;94.50;;;;;;4950491;28;20038;-63
2021/11/02 16:15:27;;;;;;;19.98;12.02;;;7.20;94.40;;;;;;4943827;28;20031;-64
2021/11/02 16:17:58;;;;;;;16.55;11.80;;;7.10;94.70;;;;;;4916894;29;20402;-63
2021/11/02 16:20:28;;;;;;;14.98;11.18;;;7.00;94.80;;;;;;4933203;28;20035;-63
2021/11/02 16:22:59;;;;;;;21.30;12.57;;;6.90;94.60;;;;;;4942202;28;20030;-64
2021/11/02 16:25:29;;;;;;;27.48;12.88;;;6.80;94.90;;;;;;4939211;28;20032;-63
2021/11/02 16:28:02;;;;;;;20.00;13.48;;;6.90;95.30;;;;;;4929938;28;20103;-64
2021/11/02 16:30:40;;;;;;;18.80;12.77;;;6.80;95.40;;;;;;4932597;28;20126;-64
2021/11/02 16:33:07;;;;;;;22.92;13.07;;;6.80;95.70;;;;;;4939844;28;20023;-64
2021/11/02 16:35:53;;;;;;;22.42;14.82;;;6.70;95.70;;;;;;4939882;28;20182;-64
2021/11/02 16:38:18;;;;;;;21.67;13.93;;;6.60;95.80;;;;;;4939685;28;20098;-64
2021/11/02 16:40:49;;;;;;;24.17;14.55;;;6.60;95.90;;;;;;4937871;28;20043;-65
2021/11/02 16:43:15;;;;;;;25.40;15.38;;;6.50;95.90;;;;;;4940110;28;20027;-64
2021/11/02 16:45:40;;;;;;;23.40;14.23;;;6.50;96.00;;;;;;4931200;28;20038;-64
2021/11/02 16:48:09;;;;;;;25.35;15.77;;;6.50;96.20;;;;;;4933131;28;20039;-63
2021/11/02 16:50:37;;;;;;;26.63;15.90;;;6.60;96.20;;;;;;4931185;28;20063;-63
2021/11/02 16:53:16;;;;;;;28.42;16.27;;;6.70;96.40;;;;;;4931081;28;20023;-64
2021/11/02 16:55:44;;;;;;;28.40;16.70;;;6.80;96.50;;;;;;4940709;28;20259;-64
2021/11/02 16:58:19;;;;;;;30.00;16.45;;;7.00;96.70;;;;;;4939348;28;20031;-64
2021/11/02 17:00:46;;;;;;;29.35;16.42;;;7.00;96.60;;;;;;4937068;28;20107;-64
2021/11/02 17:03:14;;;;;;;29.88;16.88;;;7.00;96.50;;;;;;4928971;28;20038;-64
2021/11/02 17:05:41;;;;;;;36.40;16.60;;;7.10;96.60;;;;;;4928829;28;20239;-64
2021/11/02 17:08:12;;;;;;;30.52;17.80;;;7.10;96.60;;;;;;4930649;28;20024;-65
2021/11/02 17:10:43;;;;;;;25.00;15.23;;;7.00;96.40;;;;;;4939598;28;20022;-64
2021/11/02 17:13:27;;;;;;;27.30;14.75;;;6.90;96.40;;;;;;4927775;28;20031;-64
2021/11/02 17:16:14;;;;;;;23.45;15.32;;;6.70;96.20;;;;;;4928010;28;20486;-64
2021/11/02 17:18:56;;;;;;;21.75;14.75;;;6.70;96.40;;;;;;4923935;28;20118;-64
2021/11/02 17:21:33;;;;;;;28.73;16.10;;;6.50;96.30;;;;;;4938597;28;20035;-64
2021/11/02 17:24:01;;;;;;;28.40;15.05;;;6.40;96.30;;;;;;4931612;28;20031;-64
2021/11/02 17:26:30;;;;;;;30.38;17.05;;;6.40;96.60;;;;;;4938991;28;20035;-64
2021/11/02 17:28:56;;;;;;;28.45;17.38;;;6.30;96.60;;;;;;4941073;28;20027;-64
2021/11/02 17:31:24;;;;;;;35.03;20.45;;;6.30;96.60;;;;;;4927822;28;20375;-64
2021/11/02 17:33:51;;;;;;;41.05;21.52;;;6.30;96.70;;;;;;4936585;28;20045;-65
2021/11/02 17:36:18;;;;;;;35.60;21.20;;;6.20;97.00;;;;;;4946045;28;20030;-64
2021/11/02 17:38:46;;;;;;;32.65;19.75;;;6.10;96.70;;;;;;4947525;28;20031;-64
2021/11/02 17:41:13;;;;;;;36.40;20.35;;;6.00;96.60;;;;;;4944688;28;20053;-64
2021/11/02 17:43:41;;;;;;;29.38;18.27;;;5.90;96.70;;;;;;4934795;28;20139;-65
2021/11/02 17:46:07;;;;;;;36.28;19.83;;;5.90;96.80;;;;;;4933507;28;20124;-64
2021/11/02 17:48:33;;;;;;;37.40;21.67;;;5.80;96.70;;;;;;4909013;28;20123;-65